TimeHST,TemperatureF,Dew PointF,Humidity,Sea Level PressureIn,VisibilityMPH,Wind Direction,Wind SpeedMPH,Gust SpeedMPH,PrecipitationIn,Events,Conditions,WindDirDegrees,DateUTC
12:56 AM,50.0,22.5,34,30.39,12.0,SE,5.8,-,N/A,,Clear,130,2013-08-27 10:56:00
1:56 AM,48.2,20.7,34,30.38,12.0,ESE,5.8,-,N/A,,Clear,120,2013-08-27 11:56:00
2:56 AM,46.2,21.7,38,30.37,12.0,ESE,6.9,-,N/A,,Clear,120,2013-08-27 12:56:00
3:56 AM,47.1,29.8,51,30.37,12.0,SE,5.8,-,N/A,,Clear,130,2013-08-27 13:56:00
4:56 AM,44.8,16.5,32,30.37,12.0,ESE,5.8,-,N/A,,Clear,110,2013-08-27 14:56:00
5:56 AM,42.6,16.0,34,30.38,12.0,SE,3.5,-,N/A,,Clear,130,2013-08-27 15:56:00
6:26 AM,42.8,15.8,34,30.39,2.8,SE,2.3,-,N/A,,Haze,130,2013-08-27 16:26:00
6:31 AM,42.8,15.8,34,30.39,4.0,ESE,4.6,-,N/A,,Clear,120,2013-08-27 16:31:00
6:56 AM,49.3,34.9,58,30.38,12.0,ESE,5.8,-,N/A,,Clear,120,2013-08-27 16:56:00
7:56 AM,58.8,43.3,56,30.39,12.0,SE,5.8,-,N/A,,Clear,130,2013-08-27 17:56:00
8:56 AM,64.0,34.7,34,30.40,12.0,SW,4.6,-,N/A,,Clear,230,2013-08-27 18:56:00
9:56 AM,67.6,40.3,37,30.40,12.0,South,5.8,-,N/A,,Partly Cloudy,180,2013-08-27 19:56:00
10:56 AM,68.7,47.1,46,30.40,12.0,West,8.1,15.0,N/A,,Partly Cloudy,260,2013-08-27 20:56:00
11:56 AM,69.8,46.9,44,30.38,12.0,West,5.8,12.7,N/A,,Partly Cloudy,280,2013-08-27 21:56:00
12:56 PM,70.2,51.8,52,30.36,12.0,West,8.1,19.6,N/A,,Partly Cloudy,280,2013-08-27 22:56:00
1:56 PM,71.6,54.1,54,30.34,12.0,SW,9.2,19.6,N/A,,Partly Cloudy,230,2013-08-27 23:56:00
2:56 PM,70.0,51.8,52,30.32,12.0,West,5.8,17.3,N/A,,Partly Cloudy,270,2013-08-28 00:56:00
3:56 PM,66.7,55.2,66,30.32,12.0,West,11.5,19.6,N/A,,Partly Cloudy,270,2013-08-28 01:56:00
4:19 PM,69.8,42.8,38,30.31,12.0,SSE,12.7,20.7,N/A,,Partly Cloudy,150,2013-08-28 02:19:00
4:28 PM,68.0,44.6,43,30.31,12.0,South,15.0,21.9,N/A,,Partly Cloudy,190,2013-08-28 02:28:00
4:56 PM,68.7,46.8,45,30.31,12.0,SSE,11.5,19.6,N/A,,Clear,150,2013-08-28 02:56:00
5:56 PM,64.6,45.0,49,30.31,12.0,South,12.7,20.7,N/A,,Clear,170,2013-08-28 03:56:00
6:56 PM,58.1,52.5,82,30.32,12.0,West,6.9,-,N/A,,Clear,260,2013-08-28 04:56:00
7:56 PM,54.3,52.7,94,30.35,2.0,West,3.5,-,N/A,,Clear,260,2013-08-28 05:56:00
8:01 PM,53.6,51.8,94,30.35,1.6,WSW,2.3,-,N/A,,Partly Cloudy,250,2013-08-28 06:01:00
8:06 PM,53.6,51.8,94,30.35,4.0,WSW,2.3,-,N/A,,Clear,250,2013-08-28 06:06:00
8:56 PM,53.2,50.2,89,30.36,12.0,East,2.3,-,N/A,,Clear,100,2013-08-28 06:56:00
9:56 PM,53.2,38.5,57,30.37,12.0,SE,2.3,-,N/A,,Clear,130,2013-08-28 07:56:00
10:56 PM,50.5,36.7,59,30.36,12.0,ESE,5.8,-,N/A,,Clear,120,2013-08-28 08:56:00
11:56 PM,50.9,39.6,65,30.36,12.0,ESE,5.8,-,N/A,,Clear,120,2013-08-28 09:56:00